createdAt,value
2017-11-11T00:02:24.693Z,5.90
2017-11-11T00:04:52.210Z,5.90
2017-11-11T00:07:19.693Z,5.90
2017-11-11T00:09:47.189Z,5.90
2017-11-11T00:12:14.721Z,5.90
2017-11-11T00:14:42.236Z,5.90
2017-11-11T00:17:09.746Z,5.90
2017-11-11T00:19:38.045Z,6.00
2017-11-11T00:22:06.929Z,5.90
2017-11-11T00:24:35.229Z,5.90
2017-11-11T00:27:02.845Z,5.90
2017-11-11T00:29:30.329Z,5.90
2017-11-11T00:31:58.599Z,5.90
2017-11-11T00:34:26.133Z,5.90
2017-11-11T00:36:53.621Z,5.90
2017-11-11T00:39:21.886Z,5.80
2017-11-11T00:41:50.164Z,5.80
2017-11-11T00:44:17.757Z,5.80
2017-11-11T00:46:45.248Z,5.90
2017-11-11T00:49:12.854Z,5.90
2017-11-11T00:51:40.360Z,5.80
2017-11-11T00:54:07.862Z,5.80
2017-11-11T00:56:35.424Z,5.80
2017-11-11T00:59:02.946Z,5.80
2017-11-11T01:01:31.256Z,5.70
2017-11-11T01:03:58.778Z,5.70
2017-11-11T01:06:26.326Z,5.80
2017-11-11T01:08:53.866Z,5.80
2017-11-11T01:11:21.360Z,5.70
2017-11-11T01:13:50.612Z,5.70
2017-11-11T01:16:18.130Z,5.70
2017-11-11T01:18:46.412Z,5.80
2017-11-11T01:21:13.920Z,5.70
2017-11-11T01:23:41.445Z,5.80
2017-11-11T01:26:08.984Z,5.80
2017-11-11T01:28:37.267Z,5.80
2017-11-11T01:31:04.774Z,5.80
2017-11-11T01:33:32.291Z,5.80
2017-11-11T01:35:59.831Z,5.70
2017-11-11T01:38:27.361Z,5.70
2017-11-11T01:40:54.854Z,5.70
2017-11-11T01:43:22.381Z,5.70
2017-11-11T01:45:51.412Z,5.70
2017-11-11T01:48:18.927Z,5.70
2017-11-11T01:50:46.442Z,5.70
2017-11-11T01:53:13.967Z,5.70
2017-11-11T01:55:41.464Z,5.60
2017-11-11T01:58:08.977Z,5.60
2017-11-11T02:00:36.511Z,5.70
2017-11-11T02:03:04.026Z,5.80
2017-11-11T02:05:31.507Z,5.70
2017-11-11T02:07:59.833Z,5.60
2017-11-11T02:10:27.341Z,5.60
2017-11-11T02:12:54.862Z,5.60
2017-11-11T02:15:22.383Z,5.80
2017-11-11T02:17:50.661Z,5.70
2017-11-11T02:20:19.002Z,5.70
2017-11-11T02:22:47.074Z,5.80
2017-11-11T02:25:14.644Z,5.70
2017-11-11T02:27:42.143Z,5.80
2017-11-11T02:30:09.662Z,5.70
2017-11-11T02:32:37.168Z,5.70
2017-11-11T02:35:04.698Z,5.70
2017-11-11T02:37:32.215Z,5.70
2017-11-11T02:39:59.758Z,5.70
2017-11-11T02:42:28.047Z,5.80
2017-11-11T02:44:55.524Z,5.70
2017-11-11T02:47:23.818Z,5.70
2017-11-11T02:49:52.100Z,5.80
2017-11-11T02:52:19.640Z,5.80
2017-11-11T02:54:47.944Z,5.80
2017-11-11T02:57:15.483Z,5.80
2017-11-11T02:59:43.790Z,5.70
2017-11-11T03:02:11.346Z,5.70
2017-11-11T03:04:38.878Z,5.80
2017-11-11T03:07:07.153Z,5.90
2017-11-11T03:09:35.454Z,6.00
2017-11-11T03:12:02.972Z,6.00
2017-11-11T03:14:31.253Z,6.00
2017-11-11T03:16:59.549Z,6.10
2017-11-11T03:19:27.062Z,6.00
2017-11-11T03:21:54.561Z,6.10
2017-11-11T03:24:22.098Z,6.10
2017-11-11T03:26:50.362Z,6.20
2017-11-11T03:29:18.700Z,6.10
2017-11-11T03:31:46.222Z,6.10
2017-11-11T03:34:13.732Z,6.20
2017-11-11T03:36:41.263Z,6.20
2017-11-11T03:39:08.773Z,6.30
2017-11-11T03:41:37.080Z,6.20
2017-11-11T03:44:04.576Z,6.20
2017-11-11T03:46:32.081Z,6.10
2017-11-11T03:48:59.597Z,6.20
2017-11-11T03:51:27.121Z,6.20
2017-11-11T03:53:54.668Z,6.20
2017-11-11T03:56:22.153Z,6.20
2017-11-11T03:58:49.787Z,6.20
2017-11-11T04:01:17.281Z,6.20
2017-11-11T04:03:44.814Z,6.10
2017-11-11T04:06:12.365Z,6.20
2017-11-11T04:08:39.889Z,6.20
2017-11-11T04:11:07.405Z,6.10
2017-11-11T04:13:34.929Z,6.10
2017-11-11T04:16:02.421Z,6.10
2017-11-11T04:18:29.962Z,6.10
2017-11-11T04:20:57.466Z,6.10
2017-11-11T04:23:25.752Z,6.10
2017-11-11T04:25:53.287Z,6.10
2017-11-11T04:28:20.830Z,6.10
2017-11-11T04:30:48.329Z,6.20
2017-11-11T04:33:15.870Z,6.20
2017-11-11T04:35:44.182Z,6.20
2017-11-11T04:38:11.682Z,6.20
2017-11-11T04:40:39.981Z,6.20
2017-11-11T04:43:08.301Z,6.10
2017-11-11T04:45:36.577Z,6.10
2017-11-11T04:48:04.852Z,6.10
2017-11-11T04:50:32.394Z,6.10
2017-11-11T04:52:59.887Z,6.10
2017-11-11T04:55:28.124Z,6.10
2017-11-11T04:57:55.649Z,6.20
2017-11-11T05:00:23.967Z,6.30
2017-11-11T05:02:51.463Z,6.30
2017-11-11T05:05:18.954Z,6.20
2017-11-11T05:07:46.489Z,6.30
2017-11-11T05:10:14.752Z,6.20
2017-11-11T05:12:42.242Z,6.20
2017-11-11T05:15:09.800Z,6.20
2017-11-11T05:17:37.307Z,6.20
2017-11-11T05:20:04.822Z,6.20
2017-11-11T05:22:32.304Z,6.20
2017-11-11T05:24:59.829Z,6.20
2017-11-11T05:27:27.330Z,6.20
2017-11-11T05:29:54.878Z,6.10
2017-11-11T05:32:22.392Z,6.20
2017-11-11T05:34:49.890Z,6.10
2017-11-11T05:37:18.500Z,6.10
2017-11-11T05:39:45.999Z,6.10
2017-11-11T05:42:13.488Z,6.10
2017-11-11T05:44:41.006Z,6.20
2017-11-11T05:47:08.522Z,6.10
2017-11-11T05:49:36.062Z,6.10
2017-11-11T05:52:03.535Z,6.10
2017-11-11T05:54:31.853Z,6.20
2017-11-11T05:56:59.349Z,6.20
2017-11-11T05:59:26.879Z,6.30
2017-11-11T06:01:54.389Z,6.30
2017-11-11T06:04:21.906Z,6.30
2017-11-11T06:06:49.425Z,6.20
2017-11-11T06:09:17.690Z,6.20
2017-11-11T06:11:46.095Z,6.30
2017-11-11T06:14:14.495Z,6.30
2017-11-11T06:16:42.960Z,6.30
2017-11-11T06:19:10.458Z,6.30
2017-11-11T06:21:38.812Z,6.30
2017-11-11T06:24:07.781Z,6.20
2017-11-11T06:26:35.323Z,6.30
2017-11-11T06:29:03.279Z,6.30
2017-11-11T06:31:31.880Z,6.20
2017-11-11T06:33:59.383Z,6.30
2017-11-11T06:36:26.872Z,6.10
2017-11-11T06:38:55.241Z,6.10
2017-11-11T06:41:22.795Z,6.10
2017-11-11T06:43:51.123Z,6.00
2017-11-11T06:46:18.646Z,6.00
2017-11-11T06:48:47.745Z,6.10
2017-11-11T06:51:16.030Z,6.10
2017-11-11T06:53:43.572Z,6.10
2017-11-11T06:56:11.824Z,6.00
2017-11-11T06:58:39.317Z,6.00
2017-11-11T07:01:06.849Z,6.00
2017-11-11T07:03:36.858Z,6.00
2017-11-11T07:06:05.158Z,5.90
2017-11-11T07:08:39.107Z,5.80
2017-11-11T07:11:06.590Z,5.80
2017-11-11T07:13:34.170Z,5.80
2017-11-11T07:16:02.469Z,5.90
2017-11-11T07:18:29.998Z,5.90
2017-11-11T07:21:03.549Z,5.90
2017-11-11T07:23:31.146Z,5.90
2017-11-11T07:25:59.445Z,5.80
2017-11-11T07:28:26.991Z,5.80
2017-11-11T07:30:55.284Z,5.80
2017-11-11T07:33:22.785Z,5.70
2017-11-11T07:35:50.327Z,5.80
2017-11-11T07:38:17.855Z,5.90
2017-11-11T07:40:45.631Z,6.00
2017-11-11T07:43:13.170Z,6.00
2017-11-11T07:45:41.449Z,6.00
2017-11-11T07:48:08.962Z,5.90
2017-11-11T07:50:36.513Z,5.90
2017-11-11T07:53:04.079Z,5.90
2017-11-11T07:55:31.594Z,5.90
2017-11-11T07:57:59.874Z,5.90
2017-11-11T08:00:27.429Z,5.90
2017-11-11T08:02:54.938Z,5.90
2017-11-11T08:05:23.282Z,6.00
2017-11-11T08:07:50.772Z,5.90
2017-11-11T08:10:27.982Z,6.10
2017-11-11T08:13:06.744Z,6.00
2017-11-11T08:15:34.304Z,5.90
2017-11-11T08:18:01.815Z,6.00
2017-11-11T08:20:29.360Z,5.90
2017-11-11T08:22:57.834Z,6.10
2017-11-11T08:25:26.125Z,6.10
2017-11-11T08:27:54.478Z,6.10
2017-11-11T08:30:22.032Z,6.10
2017-11-11T08:32:49.553Z,6.20
2017-11-11T08:35:23.540Z,6.20
2017-11-11T08:37:51.122Z,6.10
2017-11-11T08:40:18.614Z,6.20
2017-11-11T08:42:46.918Z,6.40
2017-11-11T08:45:14.438Z,6.30
2017-11-11T08:47:42.746Z,6.50
2017-11-11T08:50:11.047Z,6.50
2017-11-11T08:52:38.548Z,6.40
2017-11-11T08:55:06.839Z,6.60
2017-11-11T08:57:34.362Z,6.50
2017-11-11T09:00:01.889Z,6.60
2017-11-11T09:02:29.451Z,6.60
2017-11-11T09:04:56.943Z,6.60
2017-11-11T09:07:24.459Z,6.70
2017-11-11T09:09:51.975Z,6.70
2017-11-11T09:12:19.535Z,6.80
2017-11-11T09:14:47.854Z,6.80
2017-11-11T09:17:15.735Z,6.80
2017-11-11T09:19:43.296Z,6.80
2017-11-11T09:22:10.855Z,6.90
2017-11-11T09:24:38.412Z,6.90
2017-11-11T09:27:05.967Z,6.80
2017-11-11T09:29:33.478Z,6.80
2017-11-11T09:32:01.028Z,6.80
2017-11-11T09:34:35.799Z,6.90
2017-11-11T09:37:03.288Z,6.90
2017-11-11T09:39:36.667Z,6.90
2017-11-11T09:42:04.185Z,6.90
2017-11-11T09:44:43.525Z,7.00
2017-11-11T09:50:06.638Z,7.00
2017-11-11T09:52:34.229Z,6.90
2017-11-11T09:55:02.551Z,7.10
2017-11-11T09:57:31.380Z,7.00
2017-11-11T10:02:53.587Z,7.10
2017-11-11T10:08:15.026Z,7.10
2017-11-11T10:10:42.603Z,7.10
2017-11-11T10:13:17.230Z,7.10
2017-11-11T10:15:44.830Z,7.10
2017-11-11T10:18:12.413Z,7.10
2017-11-11T10:20:39.929Z,7.10
2017-11-11T10:23:08.220Z,7.10
2017-11-11T10:25:40.641Z,7.10
2017-11-11T10:51:37.846Z,6.90
2017-11-11T11:00:01.937Z,7.00
2017-11-11T11:02:29.470Z,7.00
2017-11-11T11:04:57.154Z,7.10
2017-11-11T11:07:24.666Z,7.10
2017-11-11T11:09:52.289Z,7.20
2017-11-11T11:12:19.805Z,7.20
2017-11-11T11:14:47.344Z,7.20
2017-11-11T11:17:14.846Z,7.20
2017-11-11T11:19:42.352Z,7.30
2017-11-11T11:22:09.884Z,7.40
2017-11-11T11:24:37.379Z,7.40
2017-11-11T11:27:10.634Z,7.40
2017-11-11T11:29:39.355Z,7.60
2017-11-11T11:32:06.904Z,7.50
2017-11-11T11:34:34.453Z,7.50
2017-11-11T11:37:02.750Z,7.60
2017-11-11T11:39:31.013Z,7.70
2017-11-11T11:41:58.551Z,7.70
2017-11-11T11:44:26.072Z,7.70
2017-11-11T11:46:53.583Z,7.80
2017-11-11T11:49:21.120Z,7.90
2017-11-11T11:51:48.605Z,8.00
2017-11-11T11:54:16.114Z,8.10
2017-11-11T11:56:43.650Z,8.10
2017-11-11T11:59:11.182Z,8.10
2017-11-11T12:01:38.696Z,8.10
2017-11-11T12:04:06.989Z,8.20
2017-11-11T12:06:34.518Z,8.20
2017-11-11T12:09:02.028Z,8.30
2017-11-11T12:11:29.670Z,8.30
2017-11-11T12:13:57.162Z,8.30
2017-11-11T12:16:25.437Z,8.30
2017-11-11T12:18:52.951Z,8.30
2017-11-11T12:21:20.490Z,8.40
2017-11-11T12:23:48.791Z,8.40
2017-11-11T12:26:17.052Z,8.40
2017-11-11T12:28:44.589Z,8.40
2017-11-11T12:31:12.126Z,8.40
2017-11-11T12:33:40.434Z,8.40
2017-11-11T12:36:07.933Z,8.40
2017-11-11T12:38:35.482Z,8.50
2017-11-11T12:41:03.006Z,8.50
2017-11-11T12:43:30.495Z,8.50
2017-11-11T12:45:58.039Z,8.40
2017-11-11T12:48:25.550Z,8.40
2017-11-11T12:50:53.054Z,8.40
2017-11-11T12:53:20.595Z,8.50
2017-11-11T12:55:48.088Z,8.50
2017-11-11T12:58:15.610Z,8.50
2017-11-11T13:00:43.138Z,8.60
2017-11-11T13:03:10.623Z,8.60
2017-11-11T13:05:38.146Z,8.50
2017-11-11T13:08:05.667Z,8.40
2017-11-11T13:10:33.192Z,8.40
2017-11-11T13:13:00.681Z,8.40
2017-11-11T13:15:28.167Z,8.40
2017-11-11T13:17:55.695Z,8.40
2017-11-11T13:20:23.211Z,8.40
2017-11-11T13:22:50.735Z,8.30
2017-11-11T13:25:19.018Z,8.40
2017-11-11T13:27:46.534Z,8.40
2017-11-11T13:30:14.826Z,8.40
2017-11-11T13:32:42.315Z,8.30
2017-11-11T13:35:09.829Z,8.40
2017-11-11T13:37:37.336Z,8.30
2017-11-11T13:40:05.649Z,8.30
2017-11-11T13:42:33.954Z,8.30
2017-11-11T13:45:01.455Z,8.30
2017-11-11T13:47:28.961Z,8.40
2017-11-11T13:49:56.495Z,8.30
2017-11-11T13:52:24.016Z,8.50
2017-11-11T13:54:51.513Z,8.40
2017-11-11T13:57:19.810Z,8.30
2017-11-11T13:59:48.092Z,8.30
2017-11-11T14:02:16.349Z,8.20
2017-11-11T14:04:43.886Z,8.20
2017-11-11T14:07:11.387Z,8.20
2017-11-11T14:09:38.881Z,8.10
2017-11-11T14:12:06.431Z,8.10
2017-11-11T14:14:33.937Z,8.10
2017-11-11T14:17:02.211Z,8.10
2017-11-11T14:19:29.751Z,8.10
2017-11-11T14:21:57.262Z,8.10
2017-11-11T14:24:24.762Z,8.10
2017-11-11T14:26:52.291Z,8.10
2017-11-11T14:29:19.801Z,8.10
2017-11-11T14:31:47.297Z,8.10
2017-11-11T14:34:14.831Z,8.10
2017-11-11T14:36:43.097Z,8.10
2017-11-11T14:39:10.630Z,8.10
2017-11-11T14:41:38.126Z,8.20
2017-11-11T14:44:05.668Z,8.10
2017-11-11T14:46:33.162Z,8.00
2017-11-11T14:49:00.700Z,7.90
2017-11-11T14:51:28.190Z,7.90
2017-11-11T14:53:55.687Z,8.00
2017-11-11T14:56:23.214Z,7.90
2017-11-11T14:58:50.713Z,8.00
2017-11-11T15:01:18.257Z,7.80
2017-11-11T15:03:45.777Z,7.80
2017-11-11T15:06:13.292Z,7.80
2017-11-11T15:08:40.837Z,7.90
2017-11-11T15:11:09.112Z,7.90
2017-11-11T15:13:36.636Z,7.90
2017-11-11T15:16:04.162Z,7.90
2017-11-11T15:18:32.431Z,7.80
2017-11-11T15:20:59.947Z,7.80
2017-11-11T15:23:27.476Z,7.80
2017-11-11T15:25:54.987Z,7.80
2017-11-11T15:28:22.522Z,7.80
2017-11-11T15:30:50.039Z,7.80
2017-11-11T15:33:17.559Z,7.70
2017-11-11T15:35:45.073Z,7.80
2017-11-11T15:38:12.594Z,7.70
2017-11-11T15:40:40.137Z,7.70
2017-11-11T15:43:07.675Z,7.70
2017-11-11T15:45:35.951Z,7.70
2017-11-11T15:48:05.140Z,7.60
2017-11-11T15:50:32.639Z,7.60
2017-11-11T15:53:00.922Z,7.70
2017-11-11T15:55:29.217Z,7.70
2017-11-11T15:57:57.480Z,7.60
2017-11-11T16:00:24.998Z,7.60
2017-11-11T16:02:52.624Z,7.60
2017-11-11T16:05:20.162Z,7.60
2017-11-11T16:07:47.675Z,7.60
2017-11-11T16:10:15.173Z,7.60
2017-11-11T16:12:43.495Z,7.50
2017-11-11T16:15:11.001Z,7.50
2017-11-11T16:17:38.526Z,7.50
2017-11-11T16:20:06.088Z,7.50
2017-11-11T16:22:33.656Z,7.50
2017-11-11T16:25:01.206Z,7.50
2017-11-11T16:27:29.498Z,7.50
2017-11-11T16:29:57.770Z,7.50
2017-11-11T16:32:25.327Z,7.50
2017-11-11T16:34:52.826Z,7.50
2017-11-11T16:37:20.355Z,7.50
2017-11-11T16:39:47.913Z,7.50
2017-11-11T16:42:15.412Z,7.50
2017-11-11T16:44:42.922Z,7.50
2017-11-11T16:47:11.221Z,7.50
2017-11-11T16:49:39.534Z,7.50
2017-11-11T16:52:07.816Z,7.60
2017-11-11T16:54:35.329Z,7.60
2017-11-11T16:57:02.849Z,7.50
2017-11-11T16:59:30.386Z,7.50
2017-11-11T17:01:57.886Z,7.60
2017-11-11T17:04:25.421Z,7.50
2017-11-11T17:06:52.927Z,7.50
2017-11-11T17:09:20.445Z,7.40
2017-11-11T17:11:47.968Z,7.50
2017-11-11T17:14:16.229Z,7.50
2017-11-11T17:16:43.769Z,7.40
2017-11-11T17:19:11.293Z,7.50
2017-11-11T17:21:39.595Z,7.50
2017-11-11T17:24:07.093Z,7.50
2017-11-11T17:26:34.629Z,7.50
2017-11-11T17:29:02.889Z,7.70
2017-11-11T17:31:30.389Z,7.70
2017-11-11T17:33:57.918Z,7.70
2017-11-11T17:36:25.455Z,7.70
2017-11-11T17:38:52.954Z,7.70
2017-11-11T17:41:20.463Z,7.70
2017-11-11T17:43:48.753Z,7.70
2017-11-11T17:46:17.054Z,7.60
2017-11-11T17:48:45.316Z,7.50
2017-11-11T17:51:12.813Z,7.50
2017-11-11T17:53:41.145Z,7.60
2017-11-11T17:56:08.695Z,7.60
2017-11-11T17:58:36.195Z,7.60
2017-11-11T18:01:03.989Z,7.60
2017-11-11T18:03:31.554Z,7.70
2017-11-11T18:05:59.085Z,7.70
2017-11-11T18:08:26.603Z,7.60
2017-11-11T18:10:54.102Z,7.60
2017-11-11T18:13:22.393Z,7.50
2017-11-11T18:15:50.769Z,7.50
2017-11-11T18:18:18.296Z,7.50
2017-11-11T18:20:45.787Z,7.50
2017-11-11T18:23:13.333Z,7.50
2017-11-11T18:25:40.865Z,7.50
2017-11-11T18:28:09.182Z,7.50
2017-11-11T18:30:36.688Z,7.50
2017-11-11T18:33:04.203Z,7.50
2017-11-11T18:35:31.733Z,7.50
2017-11-11T18:38:00.210Z,7.50
2017-11-11T18:40:29.342Z,7.40
2017-11-11T18:42:56.860Z,7.40
2017-11-11T18:45:24.356Z,7.40
2017-11-11T18:47:51.882Z,7.50
2017-11-11T18:50:20.150Z,7.50
2017-11-11T18:52:47.651Z,7.50
2017-11-11T18:55:15.948Z,7.50
2017-11-11T18:57:43.443Z,7.50
2017-11-11T19:00:10.964Z,7.50
2017-11-11T19:02:38.462Z,7.50
2017-11-11T19:05:06.011Z,7.60
2017-11-11T19:07:34.277Z,7.50
2017-11-11T19:10:01.779Z,7.50
2017-11-11T19:12:30.069Z,7.60
2017-11-11T19:14:57.574Z,7.50
2017-11-11T19:17:25.122Z,7.50
2017-11-11T19:19:54.893Z,7.50
2017-11-11T19:22:22.582Z,7.40
2017-11-11T19:24:50.091Z,7.40
2017-11-11T19:27:17.677Z,7.40
2017-11-11T19:29:45.195Z,7.30
2017-11-11T19:32:12.804Z,7.30
2017-11-11T19:34:41.115Z,7.20
2017-11-11T19:37:08.649Z,7.20
2017-11-11T19:39:36.975Z,7.10
2017-11-11T19:42:04.514Z,7.10
2017-11-11T19:44:32.801Z,7.10
2017-11-11T19:47:01.115Z,7.00
2017-11-11T19:49:29.245Z,7.00
2017-11-11T19:51:56.827Z,7.00
2017-11-11T19:54:24.337Z,6.90
2017-11-11T19:56:51.873Z,6.90
2017-11-11T19:59:19.374Z,6.80
2017-11-11T20:01:47.640Z,6.80
2017-11-11T20:04:15.163Z,6.80
2017-11-11T20:06:42.670Z,6.90
2017-11-11T20:09:10.228Z,6.90
2017-11-11T20:11:37.754Z,6.90
2017-11-11T20:14:06.304Z,6.80
2017-11-11T20:16:33.827Z,6.80
2017-11-11T20:19:01.327Z,6.70
2017-11-11T20:21:28.862Z,6.60
2017-11-11T20:23:56.357Z,6.60
2017-11-11T20:26:23.890Z,6.70
2017-11-11T20:28:51.387Z,6.60
2017-11-11T20:31:18.914Z,6.50
2017-11-11T20:33:46.460Z,6.50
2017-11-11T20:36:13.966Z,6.60
2017-11-11T20:38:42.290Z,6.50
2017-11-11T20:41:09.788Z,6.50
2017-11-11T20:43:37.341Z,6.50
2017-11-11T20:46:04.834Z,6.50
2017-11-11T20:48:32.327Z,6.40
2017-11-11T20:50:59.850Z,6.40
2017-11-11T20:53:27.352Z,6.40
2017-11-11T20:55:54.878Z,6.50
2017-11-11T20:58:22.370Z,6.40
2017-11-11T21:00:49.909Z,6.40
2017-11-11T21:03:17.412Z,6.30
2017-11-11T21:05:45.679Z,6.30
2017-11-11T21:08:13.998Z,6.30
2017-11-11T21:10:41.508Z,6.20
2017-11-11T21:13:09.015Z,6.20
2017-11-11T21:15:36.554Z,6.10
2017-11-11T21:18:04.063Z,6.00
2017-11-11T21:20:31.595Z,6.00
2017-11-11T21:22:59.119Z,5.90
2017-11-11T21:25:27.394Z,5.90
2017-11-11T21:27:54.905Z,5.90
2017-11-11T21:30:22.406Z,5.90
2017-11-11T21:32:49.954Z,5.90
2017-11-11T21:35:18.247Z,5.90
2017-11-11T21:37:45.755Z,5.90
2017-11-11T21:40:13.287Z,5.90
2017-11-11T21:42:40.803Z,5.90
2017-11-11T21:45:08.302Z,5.90
2017-11-11T21:47:35.827Z,5.90
2017-11-11T21:50:03.335Z,5.80
2017-11-11T21:52:30.870Z,5.90
2017-11-11T21:54:58.383Z,5.90
2017-11-11T21:57:26.647Z,5.70
2017-11-11T21:59:54.189Z,5.70
2017-11-11T22:02:21.716Z,5.70
2017-11-11T22:04:49.231Z,5.70
2017-11-11T22:07:17.550Z,5.70
2017-11-11T22:09:45.045Z,5.70
2017-11-11T22:12:13.343Z,5.70
2017-11-11T22:14:40.886Z,5.70
2017-11-11T22:17:09.193Z,5.80
2017-11-11T22:19:36.697Z,5.80
2017-11-11T22:22:04.251Z,5.80
2017-11-11T22:24:31.759Z,5.80
2017-11-11T22:26:59.255Z,5.90
2017-11-11T22:29:26.782Z,5.90
2017-11-11T22:31:54.292Z,5.90
2017-11-11T22:34:21.818Z,5.90
2017-11-11T22:36:49.306Z,5.90
2017-11-11T22:39:16.805Z,5.90
2017-11-11T22:41:44.350Z,5.90
2017-11-11T22:44:11.860Z,6.00
2017-11-11T22:46:39.371Z,6.00
2017-11-11T22:49:06.883Z,6.00
2017-11-11T22:51:34.403Z,6.10
2017-11-11T22:54:01.909Z,6.00
2017-11-11T22:56:29.402Z,6.00
2017-11-11T22:58:56.935Z,6.00
2017-11-11T23:01:25.192Z,6.00
2017-11-11T23:03:52.715Z,6.00
2017-11-11T23:06:20.232Z,6.00
2017-11-11T23:08:48.523Z,5.90
2017-11-11T23:11:16.012Z,5.80
2017-11-11T23:13:43.544Z,5.90
2017-11-11T23:16:11.089Z,5.90
2017-11-11T23:18:38.587Z,6.00
2017-11-11T23:21:06.098Z,6.10
2017-11-11T23:23:33.602Z,6.10
2017-11-11T23:26:01.119Z,6.10
2017-11-11T23:28:28.633Z,6.20
2017-11-11T23:30:56.163Z,6.20
2017-11-11T23:33:23.670Z,6.20
2017-11-11T23:35:51.963Z,6.10
2017-11-11T23:38:19.483Z,6.00
2017-11-11T23:40:46.977Z,6.00
2017-11-11T23:43:14.515Z,6.10
2017-11-11T23:45:43.555Z,6.10
2017-11-11T23:48:11.085Z,6.10
2017-11-11T23:50:38.584Z,6.10
2017-11-11T23:53:06.111Z,6.10
2017-11-11T23:55:33.650Z,6.00
2017-11-11T23:58:01.153Z,6.10
